AirNav   Pilot Hours Calculator
 
 523 users online  

WI72
(formerly 84C)
Valhalla Airport
North Cape, Wisconsin, USA

GOING TO NORTH CAPE?


FAA INFORMATION EFFECTIVE 26 JANUARY 2023

Location

FAA Identifier: WI72
Lat/Long: 42-45-40.8500N 088-02-32.3750W
42-45.680833N 088-02.539583W
42.7613472,-88.0423264
(estimated)
Elevation: 800 ft. / 244 m (estimated)
Variation: 01W (1985)
From city: 2 miles SE of NORTH CAPE, WI
Time zone: UTC -6 (UTC -5 during Daylight Saving Time)
Zip code: 53126

Airport Operations

Airport use: Private use. Permission required prior to landing
Activation date: 09/1967
Control tower: no
ARTCC: CHICAGO CENTER
FSS: GREEN BAY FLIGHT SERVICE STATION
NOTAMs facility: GRB (NOTAM-D service available)
Attendance: 0800-1700
Wind indicator: no
Segmented circle: no

Airport Communications

CTAF/UNICOM: 122.8
WX ASOS at RAC (10 nm E): 121.425 (262-635-0959)
WX ASOS at ENW (11 nm SE): PHONE 262-652-7730
WX AWOS-3 at BUU (12 nm W): 125.275 (262-757-0907)
WX ASOS at MKE (13 nm NE): 126.4 (414-489-2168)
WX AWOS-3PT at 57C (15 nm W): 118.125 (262-642-1845)
WX AWOS-3 at UES (19 nm NW): 118.875 (262-521-5226)

Nearby radio navigation aids

VOR radial/distance  VOR name  Freq  Var
BAEr152/23.8BADGER VOR/DME116.4002E
OBKr355/32.6NORTHBROOK VOR/DME113.0002W
BJBr176/(39.8)WEST BEND VOR109.8001W

 
NDB name  Hdg/Dist  Freq  Var  ID
ROCK RIVER131/38.937101WRYV .-. -.-- ...-

Airport Services

Airframe service: NONE
Powerplant service: NONE
Bottled oxygen: NONE
Bulk oxygen: NONE

Runway Information

Runway 9/27

Dimensions: 2540 x 80 ft. / 774 x 24 m
WIDTH VARIES FM 80 FT TO 108 FT.
Surface: turf, in poor condition
CTN: RWY EXTRMLY RUF & ELEV VARIES 30 FT; ACFT WITH NOSE WHEELS AVOID EAST 1100 FT OF RWY.
RUNWAY 9  RUNWAY 27
Latitude: 42-45.703333N42-45.658333N
Longitude: 088-02.821667W088-02.257500W
Elevation: 800.0 ft.770.0 ft.
Traffic pattern: rightleft
Runway heading: 097 magnetic, 096 true277 magnetic, 276 true
Markings: nonenone
Runway end identifier lights: nono
Touchdown point: yes, no lightsyes, no lights
Obstructions: 30 ft. trees15 ft. road
ROAD RUNS PERPENDICULAR TO RWY.

Airport Ownership and Management from official FAA records

Ownership: Privately-owned
Owner: WILLIAM & KEVIN MORAN
4557 S 96 ST
FRANKSVILLE, WI 53126
Phone 262-878-8700
Manager: KEVIN MORAN
4557 S 96 ST
FRANKSVILLE, WI 53126
Phone 262-878-8700
ADDNL PHONE NR 262-909-9230.

Airport Operational Statistics

Aircraft operations: 10/year *
50% transient general aviation
50% local general aviation
* for 12-month period ending 18 June 2019

Additional Remarks

RWY NOT PLWD.
CALL AMGR ON 262-878-8700 PRIOR TO ARR TO CFM COND OF RWY 09/27.
FOR CD CTC CHICAGO ARTCC AT 630-906-8921.

Instrument Procedures

There are no published instrument procedures at WI72.

Some nearby airports with instrument procedures:

KRAC - Batten International Airport (10 nm E)
KENW - Kenosha Regional Airport (11 nm SE)
KBUU - Burlington Municipal Airport (12 nm W)
KMKE - General Mitchell International Airport (13 nm NE)
57C - East Troy Municipal Airport (15 nm W)
C02 - Grand Geneva Resort Airport (18 nm SW)
KUES - Waukesha County Airport (19 nm NW)
 
Loc | Ops | Rwys | IFR | FBO | Links
Com | Nav | Svcs | Stats | Notes
Area around WI72 (Valhalla Airport)
 
Road maps at: MapQuest Bing Google
 
Aerial photo
No photo
 
Sectional chart

 
Airport distance calculator
Flying to Valhalla Airport? Find the distance to fly.

From to WI72

Sunrise and sunset
Times for 07-Feb-2023
 Local
(UTC-6)
 Zulu
(UTC)
Morning civil twilight06:3112:31
Sunrise07:0113:01
Sunset17:1223:12
Evening civil twilight17:4123:41

Current date and time
Zulu (UTC)  07-Feb-2023 06:28:23
Local (UTC-6)  07-Feb-2023 00:28:23
 
METAR
KRAC 
10nm E 
070553Z AUTO 17015G25KT 10SM BKN042 OVC050 04/M01 A2975 RMK AO2 PK WND 17027/0526 SLP080 T00391011 10039 20028 400391094 58043
KENW 
11nm SE 
070553Z AUTO 18018G28KT 10SM SCT038 BKN046 OVC090 07/M01 A2973 RMK AO2 PK WND 18030/0520 SLP072 T00721011 10078 20033 400781100 58042
KBUU 
12nm W 
070615Z AUTO 19015G24KT 10SM OVC033 07/01 A2969 RMK AO2 T00710011 PWINO
KMKE 
13nm NE 
070552Z 17013KT 10SM BKN039 OVC095 04/M01 A2971 RMK AO2 SLP066 4/003 T00441011 10050 20028 400501094 58045
K57C 
15nm W 
070615Z AUTO 19015G23KT 10SM OVC032 08/01 A2968 RMK AO2 T00770011
KUES 
16nm N 
070615Z AUTO 16013G20KT 10SM OVC031 05/00 A2968 RMK AO2
TAF
KENW 
11nm SE 
070600Z 0706/0806 18012G23KT P6SM VCSH BKN050 WS020/20055KT FM070800 20016G24KT P6SM VCSH BKN030 WS020/22055KT FM071000 23015G28KT P6SM BKN019 FM071400 25013G25KT P6SM BKN010 FM072100 27011G20KT P6SM BKN035 FM080000 27008KT P6SM SCT210
KMKE 
13nm NE 
070600Z 0706/0812 17016G24KT P6SM VCSH BKN050 WS020/20055KT FM071000 23014G25KT P6SM BKN015 FM071500 26013G25KT P6SM BKN011 FM072100 27011G20KT P6SM BKN035 FM080000 27008KT P6SM SCT210 FM080800 VRB04KT P6SM FEW220
KUES 
16nm N 
070317Z 0703/0724 13014G24KT P6SM SCT035 BKN200 WS020/20055KT FM070600 19018G26KT P6SM -RA SCT023 OVC030 WS020/20055KT FM070900 23013G22KT P6SM SCT009 BKN013 OVC023 FM071900 28013G22KT P6SM BKN023 OVC030
NOTAMs
Click for the latest NOTAMs
NOTAMs are issued by the DoD/FAA and will open in a separate window not controlled by AirNav.

 

 
 

Would you like to see your business listed on this page?

 If your business provides an interesting product or service to pilots, flight crews, aircraft, or users of the Valhalla Airport, you should consider listing it here.  To start the listing process, click on the button below
 
Add a business
 

Other Pages about Valhalla Airport

Page from the Wisconsin airport directory (PDF)
 
Update a link
 
Copyright © AirNav, LLC. All rights reserved. Privacy Policy  Contact